createdAt,value
2022-11-16T00:00:15.238Z,0.40
2022-11-16T00:02:42.086Z,0.50
2022-11-16T00:05:09.076Z,0.60
2022-11-16T00:07:36.240Z,0.70
2022-11-16T00:10:03.168Z,0.95
2022-11-16T00:12:29.908Z,0.90
2022-11-16T00:14:56.645Z,0.90
2022-11-16T00:17:23.416Z,0.70
2022-11-16T00:19:50.165Z,0.70
2022-11-16T00:22:16.969Z,0.80
2022-11-16T00:24:43.744Z,1.10
2022-11-16T00:27:10.517Z,1.30
2022-11-16T00:29:37.353Z,1.23
2022-11-16T00:32:04.683Z,1.00
2022-11-16T00:34:31.537Z,1.00
2022-11-16T00:36:58.304Z,0.90
2022-11-16T00:39:25.156Z,0.90
2022-11-16T00:41:51.971Z,0.90
2022-11-16T00:44:19.021Z,0.80
2022-11-16T00:46:46.073Z,0.60
2022-11-16T00:49:12.833Z,1.10
2022-11-16T00:51:39.620Z,1.33
2022-11-16T00:54:08.336Z,0.90
2022-11-16T00:56:35.519Z,0.90
2022-11-16T00:59:02.438Z,0.60
2022-11-16T01:01:29.584Z,0.70
2022-11-16T01:03:58.897Z,0.80
2022-11-16T01:06:25.746Z,1.02
2022-11-16T01:08:52.550Z,0.90
2022-11-16T01:11:38.116Z,0.75
2022-11-16T01:14:07.955Z,0.55
2022-11-16T01:16:35.478Z,0.60
2022-11-16T01:19:02.921Z,0.73
2022-11-16T01:21:29.839Z,0.60
2022-11-16T01:23:57.225Z,0.50
2022-11-16T01:26:25.073Z,0.50
2022-11-16T01:28:52.482Z,0.50
2022-11-16T01:31:19.342Z,0.70
2022-11-16T01:33:46.197Z,1.02
2022-11-16T01:36:15.021Z,0.90
2022-11-16T01:38:46.379Z,0.98
2022-11-16T01:41:19.323Z,0.80
2022-11-16T01:43:56.762Z,0.60
2022-11-16T01:46:25.106Z,1.00
2022-11-16T01:48:58.921Z,0.70
2022-11-16T01:51:26.575Z,0.80
2022-11-16T01:53:53.833Z,0.73
2022-11-16T01:56:21.541Z,0.80
2022-11-16T01:58:49.785Z,1.02
2022-11-16T02:01:16.607Z,0.80
2022-11-16T02:03:43.466Z,0.65
2022-11-16T02:06:37.595Z,0.80
2022-11-16T02:10:01.736Z,0.80
2022-11-16T02:12:45.636Z,0.90
2022-11-16T02:15:34.796Z,0.70
2022-11-16T02:18:24.797Z,0.65
2022-11-16T02:21:13.128Z,0.90
2022-11-16T02:24:08.755Z,0.82
2022-11-16T02:27:14.368Z,0.60
2022-11-16T02:29:44.218Z,0.57
2022-11-16T02:32:31.120Z,0.60
2022-11-16T02:35:06.648Z,0.50
2022-11-16T02:37:37.732Z,0.70
2022-11-16T02:40:09.222Z,0.60
2022-11-16T02:42:45.257Z,0.60
2022-11-16T02:45:20.074Z,0.50
2022-11-16T02:47:48.223Z,0.50
2022-11-16T02:50:18.990Z,0.43
2022-11-16T02:52:45.942Z,0.50
2022-11-16T02:55:13.474Z,0.40
2022-11-16T02:58:06.416Z,0.50
2022-11-16T03:01:10.665Z,0.50
2022-11-16T03:03:46.278Z,0.50
2022-11-16T03:06:28.607Z,0.22
2022-11-16T03:09:04.429Z,0.40
2022-11-16T03:11:53.651Z,0.57
2022-11-16T03:14:23.763Z,0.50
2022-11-16T03:16:57.535Z,0.40
2022-11-16T03:19:51.813Z,0.75
2022-11-16T03:22:25.862Z,0.52
2022-11-16T03:24:53.103Z,0.60
2022-11-16T03:27:22.582Z,0.40
2022-11-16T03:29:55.881Z,0.40
2022-11-16T03:32:34.038Z,0.52
2022-11-16T03:35:06.247Z,0.50
2022-11-16T03:37:34.271Z,0.60
2022-11-16T03:40:02.762Z,0.50
2022-11-16T03:42:29.861Z,0.50
2022-11-16T03:44:56.872Z,0.65
2022-11-16T03:47:24.113Z,0.40
2022-11-16T03:49:50.856Z,0.55
2022-11-16T03:52:18.881Z,0.50
2022-11-16T03:54:45.714Z,0.90
2022-11-16T03:57:15.711Z,0.73
2022-11-16T03:59:45.971Z,0.80
2022-11-16T04:02:12.756Z,0.60
2022-11-16T04:04:58.084Z,0.70
2022-11-16T04:07:43.416Z,0.80
2022-11-16T04:10:29.353Z,0.68
2022-11-16T04:13:15.851Z,0.60
2022-11-16T04:16:01.540Z,0.73
2022-11-16T04:18:47.207Z,0.98
2022-11-16T04:21:46.661Z,0.80
2022-11-16T04:24:19.726Z,0.50
2022-11-16T04:27:19.253Z,0.60
2022-11-16T04:29:46.808Z,0.80
2022-11-16T04:32:32.504Z,0.70
2022-11-16T04:35:17.983Z,0.60
2022-11-16T04:37:52.642Z,0.65
2022-11-16T04:40:22.561Z,0.68
2022-11-16T04:43:07.497Z,0.52
2022-11-16T04:45:53.195Z,0.50
2022-11-16T04:48:20.807Z,0.60
2022-11-16T04:50:48.018Z,0.50
2022-11-16T04:53:15.242Z,0.80
2022-11-16T04:55:42.018Z,0.70
2022-11-16T04:58:08.801Z,0.60
2022-11-16T05:00:35.852Z,0.60
2022-11-16T05:03:04.755Z,0.50
2022-11-16T05:05:31.640Z,0.50
2022-11-16T05:07:58.495Z,0.50
2022-11-16T05:10:25.448Z,0.50
2022-11-16T05:12:52.202Z,0.60
2022-11-16T05:15:19.886Z,0.60
2022-11-16T05:17:47.356Z,0.50
2022-11-16T05:20:33.345Z,0.50
2022-11-16T05:23:00.168Z,0.52
2022-11-16T05:25:28.529Z,0.40
2022-11-16T05:27:58.186Z,0.40
2022-11-16T05:30:24.992Z,0.55
2022-11-16T05:32:51.781Z,0.43
2022-11-16T05:35:18.635Z,0.50
2022-11-16T05:37:45.454Z,0.50
2022-11-16T05:40:12.546Z,0.52
2022-11-16T05:42:39.354Z,0.50
2022-11-16T05:45:06.665Z,0.30
2022-11-16T05:47:33.477Z,0.50
2022-11-16T05:50:00.317Z,0.40
2022-11-16T05:52:27.114Z,0.30
2022-11-16T05:54:53.936Z,0.30
2022-11-16T05:57:20.715Z,0.30
2022-11-16T05:59:47.482Z,0.47
2022-11-16T06:02:14.600Z,0.47
2022-11-16T06:04:41.395Z,0.50
2022-11-16T06:07:08.262Z,0.30
2022-11-16T06:09:35.055Z,0.30
2022-11-16T06:12:01.917Z,0.40
2022-11-16T06:14:28.655Z,0.30
2022-11-16T06:16:55.543Z,0.30
2022-11-16T06:19:22.339Z,0.30
2022-11-16T06:21:49.133Z,0.30
2022-11-16T06:24:16.031Z,0.40
2022-11-16T06:26:42.898Z,0.55
2022-11-16T06:29:09.730Z,0.30
2022-11-16T06:31:36.521Z,0.50
2022-11-16T06:34:03.374Z,0.30
2022-11-16T06:36:30.396Z,0.40
2022-11-16T06:39:00.917Z,0.30
2022-11-16T06:41:27.775Z,0.50
2022-11-16T06:43:54.644Z,0.52
2022-11-16T06:46:21.585Z,0.35
2022-11-16T06:48:48.738Z,0.60
2022-11-16T06:51:15.717Z,0.70
2022-11-16T06:53:42.615Z,0.50
2022-11-16T06:56:12.291Z,0.55
2022-11-16T06:58:41.675Z,0.70
2022-11-16T07:01:11.305Z,0.50
2022-11-16T07:03:38.606Z,0.63
2022-11-16T07:06:10.814Z,0.40
2022-11-16T07:08:38.025Z,0.32
2022-11-16T07:11:06.668Z,0.40
2022-11-16T07:13:34.409Z,0.50
2022-11-16T07:16:02.835Z,0.55
2022-11-16T07:18:29.601Z,0.32
2022-11-16T07:20:56.464Z,0.60
2022-11-16T07:23:23.219Z,0.85
2022-11-16T07:25:50.028Z,0.50
2022-11-16T07:28:16.830Z,0.63
2022-11-16T07:30:44.705Z,0.60
2022-11-16T07:33:11.558Z,0.60
2022-11-16T07:35:38.365Z,0.50
2022-11-16T07:38:05.158Z,0.88
2022-11-16T07:40:31.937Z,0.43
2022-11-16T07:42:58.993Z,0.88
2022-11-16T07:45:25.844Z,0.40
2022-11-16T07:47:53.470Z,0.50
2022-11-16T07:50:20.314Z,0.40
2022-11-16T07:52:47.176Z,0.45
2022-11-16T07:55:14.182Z,0.50
2022-11-16T07:57:41.385Z,0.40
2022-11-16T08:00:08.857Z,1.30
2022-11-16T08:02:35.620Z,0.70
2022-11-16T08:05:02.464Z,0.70
2022-11-16T08:07:29.365Z,0.50
2022-11-16T08:09:56.462Z,1.00
2022-11-16T08:12:23.488Z,0.60
2022-11-16T08:14:50.537Z,0.50
2022-11-16T08:17:17.287Z,0.50
2022-11-16T08:19:44.160Z,0.65
2022-11-16T08:22:13.007Z,0.40
2022-11-16T08:24:39.814Z,0.40
2022-11-16T08:27:06.675Z,0.30
2022-11-16T08:29:33.527Z,0.40
2022-11-16T08:32:00.351Z,0.43
2022-11-16T08:34:27.267Z,0.45
2022-11-16T08:36:54.095Z,0.40
2022-11-16T08:39:20.892Z,0.35
2022-11-16T08:41:47.676Z,0.40
2022-11-16T08:44:15.776Z,0.45
2022-11-16T08:46:42.760Z,0.50
2022-11-16T08:49:09.661Z,0.52
2022-11-16T08:51:36.426Z,0.47
2022-11-16T08:54:04.006Z,0.63
2022-11-16T08:56:30.853Z,0.60
2022-11-16T08:58:59.116Z,0.80
2022-11-16T09:01:28.718Z,0.70
2022-11-16T09:03:56.282Z,0.60
2022-11-16T09:06:24.983Z,0.95
2022-11-16T09:08:52.526Z,0.80
2022-11-16T09:11:22.581Z,0.73
2022-11-16T09:13:51.020Z,0.95
2022-11-16T09:16:20.982Z,0.73
2022-11-16T09:18:49.739Z,0.82
2022-11-16T09:21:23.983Z,0.70
2022-11-16T09:23:51.422Z,0.40
2022-11-16T09:26:21.333Z,0.40
2022-11-16T09:28:55.184Z,0.47
2022-11-16T09:31:23.788Z,0.57
2022-11-16T09:33:51.050Z,0.47
2022-11-16T09:36:17.949Z,0.40
2022-11-16T09:39:19.048Z,0.30
2022-11-16T09:41:51.102Z,0.80
2022-11-16T09:44:38.190Z,0.88
2022-11-16T09:47:12.663Z,0.70
2022-11-16T09:49:43.601Z,0.70
2022-11-16T09:52:25.505Z,0.90
2022-11-16T09:54:54.819Z,0.75
2022-11-16T09:57:29.103Z,0.95
2022-11-16T10:00:02.152Z,0.90
2022-11-16T10:02:36.800Z,0.90
2022-11-16T10:05:10.642Z,1.10
2022-11-16T10:07:44.465Z,0.80
2022-11-16T10:10:16.718Z,0.60
2022-11-16T10:12:55.380Z,0.55
2022-11-16T10:15:46.922Z,0.98
2022-11-16T10:18:25.874Z,1.13
2022-11-16T10:20:55.743Z,0.60
2022-11-16T10:23:57.796Z,1.00
2022-11-16T10:27:11.042Z,0.98
2022-11-16T10:29:51.994Z,0.90
2022-11-16T10:32:39.430Z,0.90
2022-11-16T10:35:12.291Z,1.88
2022-11-16T10:37:49.729Z,1.27
2022-11-16T10:40:19.875Z,1.23
2022-11-16T10:42:57.602Z,1.30
2022-11-16T10:45:40.330Z,1.77
2022-11-16T10:48:25.187Z,1.15
2022-11-16T10:50:52.787Z,1.40
2022-11-16T10:53:28.856Z,1.45
2022-11-16T10:56:13.737Z,1.73
2022-11-16T10:58:54.564Z,1.45
2022-11-16T11:01:50.589Z,1.85
2022-11-16T11:04:26.815Z,1.17
2022-11-16T11:06:59.092Z,1.38
2022-11-16T11:09:36.182Z,1.05
2022-11-16T11:12:21.642Z,1.40
2022-11-16T11:15:07.068Z,1.30
2022-11-16T11:17:35.741Z,1.48
2022-11-16T11:20:18.198Z,1.25
2022-11-16T11:22:48.154Z,1.20
2022-11-16T11:25:24.746Z,1.63
2022-11-16T11:28:02.336Z,1.10
2022-11-16T11:30:29.652Z,1.17
2022-11-16T11:32:58.197Z,1.10
2022-11-16T11:35:31.409Z,1.13
2022-11-16T11:38:07.443Z,1.15
2022-11-16T11:40:34.952Z,0.77
2022-11-16T11:43:06.438Z,1.17
2022-11-16T11:45:43.290Z,1.02
2022-11-16T11:48:54.255Z,1.08
2022-11-16T11:51:33.601Z,0.82
2022-11-16T11:54:02.945Z,0.80
2022-11-16T11:56:32.374Z,0.80
2022-11-16T11:58:59.155Z,0.90
2022-11-16T12:01:26.329Z,0.90
2022-11-16T12:03:56.589Z,1.25
2022-11-16T12:06:29.967Z,0.75
2022-11-16T12:09:13.867Z,0.90
2022-11-16T12:11:56.552Z,0.70
2022-11-16T12:14:49.386Z,0.85
2022-11-16T12:17:31.184Z,0.93
2022-11-16T12:20:06.603Z,0.85
2022-11-16T12:23:04.234Z,0.80
2022-11-16T12:26:09.641Z,0.80
2022-11-16T12:29:03.102Z,1.02
2022-11-16T12:31:42.435Z,0.85
2022-11-16T12:34:21.724Z,0.55
2022-11-16T12:37:07.444Z,0.80
2022-11-16T12:39:35.768Z,0.70
2022-11-16T12:42:23.496Z,0.75
2022-11-16T12:45:17.205Z,0.60
2022-11-16T12:47:55.282Z,0.80
2022-11-16T12:50:22.754Z,0.70
2022-11-16T12:53:08.118Z,0.85
2022-11-16T12:55:41.770Z,1.00
2022-11-16T12:58:17.985Z,0.75
2022-11-16T13:00:51.326Z,0.90
2022-11-16T13:03:27.200Z,0.82
2022-11-16T13:06:00.132Z,0.70
2022-11-16T13:08:33.564Z,0.90
2022-11-16T13:11:16.212Z,1.23
2022-11-16T13:13:49.672Z,0.70
2022-11-16T13:16:20.550Z,0.60
2022-11-16T13:18:48.216Z,0.60
2022-11-16T13:21:26.634Z,0.85
2022-11-16T13:23:59.858Z,0.60
2022-11-16T13:26:33.291Z,0.73
2022-11-16T13:29:07.546Z,0.60
2022-11-16T13:31:38.533Z,0.55
2022-11-16T13:34:15.180Z,0.70
2022-11-16T13:36:44.988Z,0.68
2022-11-16T13:39:21.801Z,0.82
2022-11-16T13:41:50.863Z,0.82
2022-11-16T13:44:18.791Z,0.88
2022-11-16T13:46:56.448Z,1.13
2022-11-16T13:49:24.068Z,0.98
2022-11-16T13:51:52.787Z,0.80
2022-11-16T13:54:45.865Z,0.60
2022-11-16T13:57:21.788Z,0.90
2022-11-16T13:59:49.783Z,0.90
2022-11-16T14:02:36.893Z,0.75
2022-11-16T14:05:06.776Z,1.02
2022-11-16T14:07:35.355Z,0.80
2022-11-16T14:10:05.667Z,0.80
2022-11-16T14:12:38.644Z,0.85
2022-11-16T14:15:16.377Z,0.60
2022-11-16T14:17:53.681Z,0.77
2022-11-16T14:20:46.957Z,0.50
2022-11-16T14:23:22.437Z,0.45
2022-11-16T14:26:10.404Z,0.40
2022-11-16T14:28:40.160Z,0.75
2022-11-16T14:31:15.710Z,0.52
2022-11-16T14:33:42.705Z,1.88
2022-11-16T14:36:10.747Z,0.50
2022-11-16T14:38:42.735Z,0.60
2022-11-16T14:41:21.402Z,0.70
2022-11-16T14:43:52.105Z,0.40
2022-11-16T14:46:38.487Z,0.40
2022-11-16T14:49:12.399Z,0.50
2022-11-16T14:51:45.311Z,0.40
2022-11-16T14:54:29.735Z,0.40
2022-11-16T14:57:12.688Z,0.38
2022-11-16T14:59:39.487Z,0.47
2022-11-16T15:02:23.359Z,0.50
2022-11-16T15:04:52.787Z,0.38
2022-11-16T15:07:22.963Z,0.47
2022-11-16T15:09:52.563Z,0.60
2022-11-16T15:12:45.794Z,0.60
2022-11-16T15:15:12.593Z,0.40
2022-11-16T15:17:41.788Z,0.45
2022-11-16T15:20:36.959Z,0.47
2022-11-16T15:23:05.865Z,0.40
2022-11-16T15:25:32.646Z,0.30
2022-11-16T15:28:25.267Z,0.40
2022-11-16T15:31:06.523Z,0.35
2022-11-16T15:33:37.642Z,0.30
2022-11-16T15:36:38.765Z,0.25
2022-11-16T15:39:11.706Z,0.30
2022-11-16T15:41:39.529Z,0.40
2022-11-16T15:44:16.422Z,0.30
2022-11-16T15:46:47.689Z,0.47
2022-11-16T15:49:31.373Z,0.43
2022-11-16T15:51:59.998Z,0.40
2022-11-16T15:54:29.420Z,0.20
2022-11-16T15:57:04.532Z,0.30
2022-11-16T15:59:35.555Z,0.22
2022-11-16T16:02:03.435Z,0.20
2022-11-16T16:04:30.363Z,0.28
2022-11-16T16:06:59.191Z,0.20
2022-11-16T16:09:38.854Z,0.20
2022-11-16T16:12:23.735Z,0.15
2022-11-16T16:14:52.520Z,0.30
2022-11-16T16:17:31.605Z,0.20
2022-11-16T16:20:04.118Z,0.20
2022-11-16T16:22:33.380Z,0.43
2022-11-16T16:25:01.699Z,0.47
2022-11-16T16:27:31.277Z,0.30
2022-11-16T16:30:02.840Z,0.50
2022-11-16T16:32:38.584Z,0.60
2022-11-16T16:35:08.076Z,0.40
2022-11-16T16:37:38.470Z,0.40
2022-11-16T16:40:05.969Z,0.20
2022-11-16T16:42:32.787Z,0.40
2022-11-16T16:45:00.408Z,0.30
2022-11-16T16:47:27.332Z,0.30
2022-11-16T16:49:54.211Z,0.30
2022-11-16T16:52:21.228Z,0.30
2022-11-16T16:54:47.970Z,0.30
2022-11-16T16:57:18.832Z,0.30
2022-11-16T16:59:49.176Z,0.40
2022-11-16T17:02:16.769Z,0.50
2022-11-16T17:04:44.083Z,0.30
2022-11-16T17:07:10.950Z,0.20
2022-11-16T17:09:37.933Z,0.20
2022-11-16T17:12:07.948Z,0.30
2022-11-16T17:14:34.779Z,0.40
2022-11-16T17:17:01.680Z,0.30
2022-11-16T17:19:29.855Z,0.40
2022-11-16T17:21:56.742Z,0.40
2022-11-16T17:24:23.656Z,0.30
2022-11-16T17:26:50.741Z,0.35
2022-11-16T17:29:17.508Z,0.30
2022-11-16T17:31:47.063Z,0.30
2022-11-16T17:34:14.370Z,0.30
2022-11-16T17:36:41.883Z,0.20
2022-11-16T17:39:09.192Z,0.35
2022-11-16T17:41:36.418Z,0.40
2022-11-16T17:44:04.873Z,0.75
2022-11-16T17:46:31.712Z,1.10
2022-11-16T17:48:58.639Z,0.80
2022-11-16T17:51:26.498Z,0.80
2022-11-16T17:53:53.564Z,0.98
2022-11-16T17:56:23.048Z,0.93
2022-11-16T17:58:54.997Z,1.30
2022-11-16T18:01:22.760Z,1.00
2022-11-16T18:03:49.684Z,0.75
2022-11-16T18:06:21.681Z,0.70
2022-11-16T18:08:49.301Z,1.00
2022-11-16T18:11:18.781Z,0.70
2022-11-16T18:13:47.127Z,0.80
2022-11-16T18:16:19.295Z,0.90
2022-11-16T18:18:47.494Z,1.15
2022-11-16T18:21:20.470Z,0.80
2022-11-16T18:23:47.904Z,0.73
2022-11-16T18:26:16.725Z,1.00
2022-11-16T18:28:51.154Z,0.90
2022-11-16T18:31:20.208Z,0.90
2022-11-16T18:33:49.348Z,1.00
2022-11-16T18:36:17.321Z,0.80
2022-11-16T18:38:44.182Z,0.80
2022-11-16T18:41:13.727Z,0.80
2022-11-16T18:43:42.351Z,0.80
2022-11-16T18:46:09.335Z,0.90
2022-11-16T18:48:36.270Z,0.90
2022-11-16T18:51:04.434Z,0.60
2022-11-16T18:53:34.146Z,0.57
2022-11-16T18:56:01.231Z,0.60
2022-11-16T18:58:50.263Z,0.80
2022-11-16T19:01:17.100Z,0.90
2022-11-16T19:03:44.054Z,0.73
2022-11-16T19:06:11.847Z,0.95
2022-11-16T19:08:40.363Z,1.00
2022-11-16T19:11:15.124Z,0.93
2022-11-16T19:13:43.668Z,0.90
2022-11-16T19:16:12.904Z,0.70
2022-11-16T19:18:39.696Z,1.02
2022-11-16T19:21:08.776Z,0.70
2022-11-16T19:23:40.705Z,0.95
2022-11-16T19:26:07.734Z,0.90
2022-11-16T19:28:42.543Z,0.75
2022-11-16T19:31:15.338Z,2.80
2022-11-16T19:33:42.308Z,2.15
2022-11-16T19:36:17.289Z,2.05
2022-11-16T19:38:46.275Z,1.40
2022-11-16T19:41:14.788Z,1.10
2022-11-16T19:43:41.898Z,1.00
2022-11-16T19:46:16.475Z,0.93
2022-11-16T19:48:44.450Z,1.05
2022-11-16T19:51:13.456Z,0.80
2022-11-16T19:53:40.584Z,0.88
2022-11-16T19:56:10.487Z,1.00
2022-11-16T19:58:38.638Z,0.80
2022-11-16T20:01:11.383Z,1.58
2022-11-16T20:03:38.889Z,1.20
2022-11-16T20:06:10.532Z,1.02
2022-11-16T20:08:38.763Z,0.82
2022-11-16T20:11:20.690Z,1.10
2022-11-16T20:13:49.918Z,1.10
2022-11-16T20:16:18.351Z,0.98
2022-11-16T20:18:45.899Z,1.10
2022-11-16T20:21:19.361Z,1.00
2022-11-16T20:23:46.166Z,1.00
2022-11-16T20:26:14.642Z,0.90
2022-11-16T20:28:43.708Z,1.00
2022-11-16T20:31:13.443Z,0.85
2022-11-16T20:33:40.604Z,0.88
2022-11-16T20:36:10.211Z,0.93
2022-11-16T20:38:38.465Z,1.10
2022-11-16T20:41:25.267Z,0.82
2022-11-16T20:43:54.059Z,1.58
2022-11-16T20:46:23.309Z,0.82
2022-11-16T20:48:50.317Z,0.75
2022-11-16T20:51:19.760Z,0.98
2022-11-16T20:53:48.096Z,0.70
2022-11-16T20:56:16.498Z,1.00
2022-11-16T20:58:43.539Z,1.20
2022-11-16T21:01:16.669Z,0.77
2022-11-16T21:03:44.756Z,0.60
2022-11-16T21:06:13.338Z,1.00
2022-11-16T21:08:40.810Z,0.80
2022-11-16T21:11:28.917Z,0.90
2022-11-16T21:14:14.367Z,0.60
2022-11-16T21:16:41.478Z,0.70
2022-11-16T21:19:08.280Z,0.60
2022-11-16T21:21:35.296Z,0.60
2022-11-16T21:24:02.461Z,0.80
2022-11-16T21:26:32.141Z,0.60
2022-11-16T21:29:00.341Z,0.90
2022-11-16T21:31:32.721Z,0.90
2022-11-16T21:34:03.191Z,0.77
2022-11-16T21:36:31.771Z,0.80
2022-11-16T21:38:58.952Z,0.70
2022-11-16T21:41:26.640Z,0.73
2022-11-16T21:43:53.605Z,1.10
2022-11-16T21:46:22.809Z,1.00
2022-11-16T21:48:51.190Z,0.95
2022-11-16T21:51:19.828Z,1.05
2022-11-16T21:53:47.203Z,1.20
2022-11-16T21:56:17.170Z,1.02
2022-11-16T21:58:44.644Z,0.98
2022-11-16T22:01:13.243Z,1.02
2022-11-16T22:03:40.116Z,1.02
2022-11-16T22:06:27.471Z,0.90
2022-11-16T22:08:54.252Z,0.93
2022-11-16T22:11:22.263Z,0.88
2022-11-16T22:13:50.216Z,1.00
2022-11-16T22:16:19.097Z,0.75
2022-11-16T22:18:45.913Z,0.93
2022-11-16T22:21:12.922Z,0.70
2022-11-16T22:23:40.015Z,0.73
2022-11-16T22:26:12.038Z,0.80
2022-11-16T22:28:39.377Z,0.70
2022-11-16T22:31:13.796Z,0.90
2022-11-16T22:33:41.050Z,1.20
2022-11-16T22:36:10.224Z,0.77
2022-11-16T22:38:37.520Z,0.63
2022-11-16T22:41:04.693Z,0.77
2022-11-16T22:43:32.561Z,0.82
2022-11-16T22:46:01.073Z,0.75
2022-11-16T22:48:35.767Z,0.82
2022-11-16T22:51:27.440Z,0.95
2022-11-16T22:54:02.280Z,0.80
2022-11-16T22:56:30.400Z,0.55
2022-11-16T22:58:57.871Z,1.05
2022-11-16T23:01:24.998Z,0.73
2022-11-16T23:03:51.867Z,0.85
2022-11-16T23:06:19.015Z,0.65
2022-11-16T23:08:45.883Z,1.00
2022-11-16T23:11:33.413Z,0.77
2022-11-16T23:14:19.014Z,0.80
2022-11-16T23:16:46.927Z,0.50
2022-11-16T23:19:34.967Z,0.50
2022-11-16T23:22:20.929Z,0.50
2022-11-16T23:25:06.471Z,0.40
2022-11-16T23:28:00.219Z,0.32
2022-11-16T23:30:27.443Z,0.40
2022-11-16T23:32:54.426Z,0.35
2022-11-16T23:35:21.318Z,0.38
2022-11-16T23:38:07.807Z,0.40
2022-11-16T23:40:40.022Z,0.57
2022-11-16T23:43:28.301Z,0.70
2022-11-16T23:45:55.079Z,0.60
2022-11-16T23:48:21.806Z,0.52
2022-11-16T23:50:48.553Z,0.60
2022-11-16T23:53:15.365Z,0.50
2022-11-16T23:55:42.222Z,1.00
2022-11-16T23:58:14.012Z,1.02
